sensor_id;sensor_type;location;lat;lon;timestamp;temperature;humidity
43015;DHT22;28637;50.554;7.032;2023-08-07T00:04:45;12.70;99.90
43015;DHT22;28637;50.554;7.032;2023-08-07T00:09:46;12.70;99.90
43015;DHT22;28637;50.554;7.032;2023-08-07T00:14:55;12.70;99.90
43015;DHT22;28637;50.554;7.032;2023-08-07T00:19:56;12.50;99.90
43015;DHT22;28637;50.554;7.032;2023-08-07T00:24:57;12.50;99.90
43015;DHT22;28637;50.554;7.032;2023-08-07T00:29:58;12.50;99.90
43015;DHT22;28637;50.554;7.032;2023-08-07T00:34:59;12.50;99.90
43015;DHT22;28637;50.554;7.032;2023-08-07T00:40:00;12.60;99.90
43015;DHT22;28637;50.554;7.032;2023-08-07T00:45:01;12.60;99.90
43015;DHT22;28637;50.554;7.032;2023-08-07T00:50:02;12.50;99.90
43015;DHT22;28637;50.554;7.032;2023-08-07T00:55:04;12.40;99.90
43015;DHT22;28637;50.554;7.032;2023-08-07T01:00:06;12.40;99.90
43015;DHT22;28637;50.554;7.032;2023-08-07T01:05:08;12.40;99.90
43015;DHT22;28637;50.554;7.032;2023-08-07T01:10:09;12.40;99.90
43015;DHT22;28637;50.554;7.032;2023-08-07T01:15:15;12.30;99.90
43015;DHT22;28637;50.554;7.032;2023-08-07T01:20:17;12.20;99.90
43015;DHT22;28637;50.554;7.032;2023-08-07T01:25:18;12.20;99.90
43015;DHT22;28637;50.554;7.032;2023-08-07T01:30:36;12.20;99.90
43015;DHT22;28637;50.554;7.032;2023-08-07T01:35:51;12.20;99.90
43015;DHT22;28637;50.554;7.032;2023-08-07T01:40:53;12.20;99.90
43015;DHT22;28637;50.554;7.032;2023-08-07T01:45:54;12.20;99.90
43015;DHT22;28637;50.554;7.032;2023-08-07T01:50:55;12.10;99.90
43015;DHT22;28637;50.554;7.032;2023-08-07T01:55:56;12.10;99.90
43015;DHT22;28637;50.554;7.032;2023-08-07T02:00:56;12.20;99.90
43015;DHT22;28637;50.554;7.032;2023-08-07T02:05:57;12.20;99.90
43015;DHT22;28637;50.554;7.032;2023-08-07T02:10:58;12.30;99.90
43015;DHT22;28637;50.554;7.032;2023-08-07T02:16:01;12.30;99.90
43015;DHT22;28637;50.554;7.032;2023-08-07T02:21:03;12.30;99.90
43015;DHT22;28637;50.554;7.032;2023-08-07T02:26:04;12.30;99.90
43015;DHT22;28637;50.554;7.032;2023-08-07T02:31:05;12.40;99.90
43015;DHT22;28637;50.554;7.032;2023-08-07T02:36:06;12.40;99.90
43015;DHT22;28637;50.554;7.032;2023-08-07T02:41:06;12.50;99.90
43015;DHT22;28637;50.554;7.032;2023-08-07T02:46:07;12.50;99.90
43015;DHT22;28637;50.554;7.032;2023-08-07T02:51:08;12.50;99.90
43015;DHT22;28637;50.554;7.032;2023-08-07T02:56:08;12.50;99.90
43015;DHT22;28637;50.554;7.032;2023-08-07T03:01:09;12.40;99.90
43015;DHT22;28637;50.554;7.032;2023-08-07T03:06:12;12.40;99.90
43015;DHT22;28637;50.554;7.032;2023-08-07T03:11:13;12.40;99.90
43015;DHT22;28637;50.554;7.032;2023-08-07T03:16:14;12.40;99.90
43015;DHT22;28637;50.554;7.032;2023-08-07T03:21:15;12.50;99.90
43015;DHT22;28637;50.554;7.032;2023-08-07T03:26:16;12.40;99.90
43015;DHT22;28637;50.554;7.032;2023-08-07T03:31:17;12.40;99.90
43015;DHT22;28637;50.554;7.032;2023-08-07T03:36:18;12.40;99.90
43015;DHT22;28637;50.554;7.032;2023-08-07T03:41:18;12.40;99.90
43015;DHT22;28637;50.554;7.032;2023-08-07T03:46:19;12.40;99.90
43015;DHT22;28637;50.554;7.032;2023-08-07T03:51:20;12.40;99.90
43015;DHT22;28637;50.554;7.032;2023-08-07T03:56:20;12.40;99.90
43015;DHT22;28637;50.554;7.032;2023-08-07T04:01:21;12.30;99.90
43015;DHT22;28637;50.554;7.032;2023-08-07T04:06:22;12.40;99.90
43015;DHT22;28637;50.554;7.032;2023-08-07T04:11:23;12.40;99.90
43015;DHT22;28637;50.554;7.032;2023-08-07T04:16:23;12.40;99.90
43015;DHT22;28637;50.554;7.032;2023-08-07T04:21:24;12.30;99.90
43015;DHT22;28637;50.554;7.032;2023-08-07T04:26:25;12.30;99.90
43015;DHT22;28637;50.554;7.032;2023-08-07T04:31:26;12.20;99.90
43015;DHT22;28637;50.554;7.032;2023-08-07T04:36:27;12.10;99.90
43015;DHT22;28637;50.554;7.032;2023-08-07T04:41:28;12.10;99.90
43015;DHT22;28637;50.554;7.032;2023-08-07T04:46:28;12.10;99.90
43015;DHT22;28637;50.554;7.032;2023-08-07T04:51:29;12.10;99.90
43015;DHT22;28637;50.554;7.032;2023-08-07T04:56:31;12.10;99.90
43015;DHT22;28637;50.554;7.032;2023-08-07T05:01:32;12.10;99.90
43015;DHT22;28637;50.554;7.032;2023-08-07T05:06:33;12.20;99.90
43015;DHT22;28637;50.554;7.032;2023-08-07T05:11:34;12.20;99.90
43015;DHT22;28637;50.554;7.032;2023-08-07T05:16:35;12.20;99.90
43015;DHT22;28637;50.554;7.032;2023-08-07T05:21:35;12.30;99.90
43015;DHT22;28637;50.554;7.032;2023-08-07T05:26:36;12.30;99.90
43015;DHT22;28637;50.554;7.032;2023-08-07T05:31:36;12.40;99.90
43015;DHT22;28637;50.554;7.032;2023-08-07T05:36:37;12.50;99.90
43015;DHT22;28637;50.554;7.032;2023-08-07T05:41:39;12.50;99.90
43015;DHT22;28637;50.554;7.032;2023-08-07T05:46:40;12.50;99.90
43015;DHT22;28637;50.554;7.032;2023-08-07T05:51:41;12.60;99.90
43015;DHT22;28637;50.554;7.032;2023-08-07T05:56:42;12.60;99.90
43015;DHT22;28637;50.554;7.032;2023-08-07T06:01:43;12.70;99.90
43015;DHT22;28637;50.554;7.032;2023-08-07T06:06:44;12.60;99.90
43015;DHT22;28637;50.554;7.032;2023-08-07T06:11:46;12.70;99.90
43015;DHT22;28637;50.554;7.032;2023-08-07T06:16:47;12.90;99.90
43015;DHT22;28637;50.554;7.032;2023-08-07T06:21:48;12.80;99.90
43015;DHT22;28637;50.554;7.032;2023-08-07T06:26:49;12.80;99.90
43015;DHT22;28637;50.554;7.032;2023-08-07T06:31:50;12.80;99.90
43015;DHT22;28637;50.554;7.032;2023-08-07T06:36:51;12.80;99.90
43015;DHT22;28637;50.554;7.032;2023-08-07T06:41:52;12.80;99.90
43015;DHT22;28637;50.554;7.032;2023-08-07T06:46:52;12.80;99.90
43015;DHT22;28637;50.554;7.032;2023-08-07T06:51:53;12.80;99.90
43015;DHT22;28637;50.554;7.032;2023-08-07T06:56:54;12.80;99.90
43015;DHT22;28637;50.554;7.032;2023-08-07T07:01:54;12.70;99.90
43015;DHT22;28637;50.554;7.032;2023-08-07T07:06:55;12.70;99.90
43015;DHT22;28637;50.554;7.032;2023-08-07T07:11:56;12.70;99.90
43015;DHT22;28637;50.554;7.032;2023-08-07T07:16:57;12.70;99.90
43015;DHT22;28637;50.554;7.032;2023-08-07T07:21:57;12.60;99.90
43015;DHT22;28637;50.554;7.032;2023-08-07T07:26:58;12.50;99.90
43015;DHT22;28637;50.554;7.032;2023-08-07T07:31:59;12.40;99.90
43015;DHT22;28637;50.554;7.032;2023-08-07T07:36:59;12.30;99.90
43015;DHT22;28637;50.554;7.032;2023-08-07T07:42:00;12.30;99.90
43015;DHT22;28637;50.554;7.032;2023-08-07T07:47:02;12.30;99.90
43015;DHT22;28637;50.554;7.032;2023-08-07T07:52:02;12.40;99.90
43015;DHT22;28637;50.554;7.032;2023-08-07T07:57:06;12.40;99.90
43015;DHT22;28637;50.554;7.032;2023-08-07T08:02:07;12.40;99.90
43015;DHT22;28637;50.554;7.032;2023-08-07T08:07:09;12.40;99.90
43015;DHT22;28637;50.554;7.032;2023-08-07T08:12:10;12.50;99.90
43015;DHT22;28637;50.554;7.032;2023-08-07T08:17:11;12.50;99.90
43015;DHT22;28637;50.554;7.032;2023-08-07T08:22:12;12.60;99.90
43015;DHT22;28637;50.554;7.032;2023-08-07T08:27:13;12.70;99.90
43015;DHT22;28637;50.554;7.032;2023-08-07T08:32:14;12.80;99.90
43015;DHT22;28637;50.554;7.032;2023-08-07T08:37:14;13.00;99.90
43015;DHT22;28637;50.554;7.032;2023-08-07T08:42:15;13.10;99.90
43015;DHT22;28637;50.554;7.032;2023-08-07T08:47:21;13.30;99.90
43015;DHT22;28637;50.554;7.032;2023-08-07T08:52:23;13.40;99.90
43015;DHT22;28637;50.554;7.032;2023-08-07T08:57:25;13.50;99.90
43015;DHT22;28637;50.554;7.032;2023-08-07T09:02:27;13.50;99.90
43015;DHT22;28637;50.554;7.032;2023-08-07T09:07:28;13.70;99.90
43015;DHT22;28637;50.554;7.032;2023-08-07T09:12:32;13.80;99.90
43015;DHT22;28637;50.554;7.032;2023-08-07T09:17:39;14.00;99.90
43015;DHT22;28637;50.554;7.032;2023-08-07T09:22:41;14.20;99.90
43015;DHT22;28637;50.554;7.032;2023-08-07T09:27:42;14.30;99.90
43015;DHT22;28637;50.554;7.032;2023-08-07T09:32:43;14.60;99.90
43015;DHT22;28637;50.554;7.032;2023-08-07T09:37:47;15.00;99.90
43015;DHT22;28637;50.554;7.032;2023-08-07T09:42:51;15.20;99.90
43015;DHT22;28637;50.554;7.032;2023-08-07T09:48:02;15.40;99.90
43015;DHT22;28637;50.554;7.032;2023-08-07T09:53:03;15.40;99.90
43015;DHT22;28637;50.554;7.032;2023-08-07T09:58:07;15.40;99.90
43015;DHT22;28637;50.554;7.032;2023-08-07T10:03:08;15.70;99.90
43015;DHT22;28637;50.554;7.032;2023-08-07T10:08:11;15.90;99.90
43015;DHT22;28637;50.554;7.032;2023-08-07T10:13:12;16.00;99.90
43015;DHT22;28637;50.554;7.032;2023-08-07T10:18:14;16.00;99.90
43015;DHT22;28637;50.554;7.032;2023-08-07T10:23:15;15.90;99.90
43015;DHT22;28637;50.554;7.032;2023-08-07T10:28:19;16.10;99.90
43015;DHT22;28637;50.554;7.032;2023-08-07T10:33:21;16.20;99.90
43015;DHT22;28637;50.554;7.032;2023-08-07T10:38:23;16.20;99.90
43015;DHT22;28637;50.554;7.032;2023-08-07T10:43:25;16.20;99.90
43015;DHT22;28637;50.554;7.032;2023-08-07T10:48:26;15.90;99.90
43015;DHT22;28637;50.554;7.032;2023-08-07T10:53:35;15.50;99.90
43015;DHT22;28637;50.554;7.032;2023-08-07T10:58:38;15.50;99.90
43015;DHT22;28637;50.554;7.032;2023-08-07T11:03:42;15.70;99.90
43015;DHT22;28637;50.554;7.032;2023-08-07T11:08:42;15.90;99.90
43015;DHT22;28637;50.554;7.032;2023-08-07T11:13:43;15.90;99.90
43015;DHT22;28637;50.554;7.032;2023-08-07T11:18:44;16.00;99.90
43015;DHT22;28637;50.554;7.032;2023-08-07T11:23:45;16.10;99.90
43015;DHT22;28637;50.554;7.032;2023-08-07T11:28:47;16.20;99.90
43015;DHT22;28637;50.554;7.032;2023-08-07T11:33:50;16.50;99.90
43015;DHT22;28637;50.554;7.032;2023-08-07T11:38:51;16.90;99.90
43015;DHT22;28637;50.554;7.032;2023-08-07T11:43:52;17.10;99.90
43015;DHT22;28637;50.554;7.032;2023-08-07T11:48:53;17.10;99.90
43015;DHT22;28637;50.554;7.032;2023-08-07T11:53:57;17.20;99.90
43015;DHT22;28637;50.554;7.032;2023-08-07T11:58:59;17.10;99.90
43015;DHT22;28637;50.554;7.032;2023-08-07T12:09:06;17.80;99.90
43015;DHT22;28637;50.554;7.032;2023-08-07T12:14:16;17.90;99.90
43015;DHT22;28637;50.554;7.032;2023-08-07T12:19:17;18.10;99.90
43015;DHT22;28637;50.554;7.032;2023-08-07T12:24:19;17.80;99.90
43015;DHT22;28637;50.554;7.032;2023-08-07T12:29:20;17.50;99.90
43015;DHT22;28637;50.554;7.032;2023-08-07T12:34:21;17.30;99.90
43015;DHT22;28637;50.554;7.032;2023-08-07T12:39:22;17.60;99.90
43015;DHT22;28637;50.554;7.032;2023-08-07T12:44:22;18.10;99.90
43015;DHT22;28637;50.554;7.032;2023-08-07T12:49:24;18.60;99.90
43015;DHT22;28637;50.554;7.032;2023-08-07T12:54:24;19.00;99.90
43015;DHT22;28637;50.554;7.032;2023-08-07T12:59:25;19.30;99.90
43015;DHT22;28637;50.554;7.032;2023-08-07T13:04:26;19.10;99.90
43015;DHT22;28637;50.554;7.032;2023-08-07T13:09:27;19.00;99.90
43015;DHT22;28637;50.554;7.032;2023-08-07T13:14:28;19.70;99.90
43015;DHT22;28637;50.554;7.032;2023-08-07T13:19:28;19.80;99.90
43015;DHT22;28637;50.554;7.032;2023-08-07T13:24:29;19.50;99.90
43015;DHT22;28637;50.554;7.032;2023-08-07T13:29:31;19.20;99.90
43015;DHT22;28637;50.554;7.032;2023-08-07T13:34:32;19.40;99.90
43015;DHT22;28637;50.554;7.032;2023-08-07T13:39:33;19.20;99.90
43015;DHT22;28637;50.554;7.032;2023-08-07T13:44:34;19.10;99.90
43015;DHT22;28637;50.554;7.032;2023-08-07T13:49:34;19.30;99.90
43015;DHT22;28637;50.554;7.032;2023-08-07T13:54:35;19.80;99.90
43015;DHT22;28637;50.554;7.032;2023-08-07T13:59:35;20.10;99.90
43015;DHT22;28637;50.554;7.032;2023-08-07T14:04:36;20.00;99.90
43015;DHT22;28637;50.554;7.032;2023-08-07T14:09:37;19.90;99.90
43015;DHT22;28637;50.554;7.032;2023-08-07T14:14:37;19.30;99.90
43015;DHT22;28637;50.554;7.032;2023-08-07T14:19:38;19.50;99.90
43015;DHT22;28637;50.554;7.032;2023-08-07T14:24:39;19.50;99.90
43015;DHT22;28637;50.554;7.032;2023-08-07T14:29:39;19.90;99.90
43015;DHT22;28637;50.554;7.032;2023-08-07T14:34:40;20.10;99.90
43015;DHT22;28637;50.554;7.032;2023-08-07T14:39:41;19.80;99.90
43015;DHT22;28637;50.554;7.032;2023-08-07T14:44:41;20.00;99.90
43015;DHT22;28637;50.554;7.032;2023-08-07T14:49:42;19.80;99.90
43015;DHT22;28637;50.554;7.032;2023-08-07T14:54:43;19.70;99.90
43015;DHT22;28637;50.554;7.032;2023-08-07T14:59:44;19.90;99.90
43015;DHT22;28637;50.554;7.032;2023-08-07T15:04:44;20.60;99.90
43015;DHT22;28637;50.554;7.032;2023-08-07T15:09:45;21.10;99.90
43015;DHT22;28637;50.554;7.032;2023-08-07T15:14:46;21.00;99.90
43015;DHT22;28637;50.554;7.032;2023-08-07T15:19:46;21.20;99.90
43015;DHT22;28637;50.554;7.032;2023-08-07T15:24:47;21.50;99.20
43015;DHT22;28637;50.554;7.032;2023-08-07T15:29:48;21.10;98.70
43015;DHT22;28637;50.554;7.032;2023-08-07T15:34:49;20.90;97.00
43015;DHT22;28637;50.554;7.032;2023-08-07T15:39:49;20.80;97.00
43015;DHT22;28637;50.554;7.032;2023-08-07T15:44:50;20.90;98.20
43015;DHT22;28637;50.554;7.032;2023-08-07T15:49:50;21.20;96.10
43015;DHT22;28637;50.554;7.032;2023-08-07T15:54:51;20.90;96.90
43015;DHT22;28637;50.554;7.032;2023-08-07T15:59:52;20.70;97.20
43015;DHT22;28637;50.554;7.032;2023-08-07T16:04:52;20.60;97.70
43015;DHT22;28637;50.554;7.032;2023-08-07T16:09:53;20.20;98.80
43015;DHT22;28637;50.554;7.032;2023-08-07T16:14:54;19.90;99.10
43015;DHT22;28637;50.554;7.032;2023-08-07T16:19:56;19.80;99.80
43015;DHT22;28637;50.554;7.032;2023-08-07T16:24:57;19.90;99.50
43015;DHT22;28637;50.554;7.032;2023-08-07T16:29:57;20.10;99.90
43015;DHT22;28637;50.554;7.032;2023-08-07T16:35:05;19.80;99.90
43015;DHT22;28637;50.554;7.032;2023-08-07T16:40:06;19.10;99.90
43015;DHT22;28637;50.554;7.032;2023-08-07T16:45:07;19.40;99.90
43015;DHT22;28637;50.554;7.032;2023-08-07T16:50:08;19.60;99.90
43015;DHT22;28637;50.554;7.032;2023-08-07T16:55:09;19.50;99.90
43015;DHT22;28637;50.554;7.032;2023-08-07T17:00:10;19.40;99.90
43015;DHT22;28637;50.554;7.032;2023-08-07T17:05:11;19.00;99.90
43015;DHT22;28637;50.554;7.032;2023-08-07T17:10:12;18.80;99.90
43015;DHT22;28637;50.554;7.032;2023-08-07T17:15:13;18.70;99.90
43015;DHT22;28637;50.554;7.032;2023-08-07T17:20:14;18.90;99.90
43015;DHT22;28637;50.554;7.032;2023-08-07T17:25:15;18.60;99.90
43015;DHT22;28637;50.554;7.032;2023-08-07T17:30:15;18.70;99.90
43015;DHT22;28637;50.554;7.032;2023-08-07T17:35:16;18.70;99.90
43015;DHT22;28637;50.554;7.032;2023-08-07T17:40:17;18.50;99.90
43015;DHT22;28637;50.554;7.032;2023-08-07T17:45:18;18.20;99.90
43015;DHT22;28637;50.554;7.032;2023-08-07T17:50:18;18.00;99.90
43015;DHT22;28637;50.554;7.032;2023-08-07T17:55:19;17.80;99.90
43015;DHT22;28637;50.554;7.032;2023-08-07T18:00:20;17.70;99.90
43015;DHT22;28637;50.554;7.032;2023-08-07T18:05:21;17.60;99.90
43015;DHT22;28637;50.554;7.032;2023-08-07T18:10:22;17.40;99.90
43015;DHT22;28637;50.554;7.032;2023-08-07T18:15:23;17.50;99.90
43015;DHT22;28637;50.554;7.032;2023-08-07T18:20:24;17.60;99.90
43015;DHT22;28637;50.554;7.032;2023-08-07T18:25:24;17.70;99.90
43015;DHT22;28637;50.554;7.032;2023-08-07T18:30:25;17.50;99.90
43015;DHT22;28637;50.554;7.032;2023-08-07T18:35:26;17.40;99.90
43015;DHT22;28637;50.554;7.032;2023-08-07T18:40:27;17.10;99.90
43015;DHT22;28637;50.554;7.032;2023-08-07T18:45:27;16.80;99.90
43015;DHT22;28637;50.554;7.032;2023-08-07T18:50:28;16.50;99.90
43015;DHT22;28637;50.554;7.032;2023-08-07T18:55:28;16.30;99.90
43015;DHT22;28637;50.554;7.032;2023-08-07T19:00:30;16.00;99.90
43015;DHT22;28637;50.554;7.032;2023-08-07T19:05:31;15.80;99.90
43015;DHT22;28637;50.554;7.032;2023-08-07T19:10:31;15.70;99.90
43015;DHT22;28637;50.554;7.032;2023-08-07T19:15:32;15.50;99.90
43015;DHT22;28637;50.554;7.032;2023-08-07T19:20:33;15.40;99.90
43015;DHT22;28637;50.554;7.032;2023-08-07T19:25:33;15.30;99.90
43015;DHT22;28637;50.554;7.032;2023-08-07T19:30:34;15.20;99.90
43015;DHT22;28637;50.554;7.032;2023-08-07T19:35:35;15.10;99.90
43015;DHT22;28637;50.554;7.032;2023-08-07T19:40:39;14.90;99.90
43015;DHT22;28637;50.554;7.032;2023-08-07T19:45:39;14.80;99.90
43015;DHT22;28637;50.554;7.032;2023-08-07T19:50:40;14.60;99.90
43015;DHT22;28637;50.554;7.032;2023-08-07T19:55:41;14.60;99.90
43015;DHT22;28637;50.554;7.032;2023-08-07T20:00:41;14.50;99.90
43015;DHT22;28637;50.554;7.032;2023-08-07T20:05:42;14.40;99.90
43015;DHT22;28637;50.554;7.032;2023-08-07T20:10:43;14.30;99.90
43015;DHT22;28637;50.554;7.032;2023-08-07T20:15:44;14.10;99.90
43015;DHT22;28637;50.554;7.032;2023-08-07T20:20:44;14.00;99.90
43015;DHT22;28637;50.554;7.032;2023-08-07T20:25:45;14.00;99.90
43015;DHT22;28637;50.554;7.032;2023-08-07T20:30:46;13.90;99.90
43015;DHT22;28637;50.554;7.032;2023-08-07T20:35:46;13.90;99.90
43015;DHT22;28637;50.554;7.032;2023-08-07T20:40:47;13.90;99.90
43015;DHT22;28637;50.554;7.032;2023-08-07T20:45:48;13.80;99.90
43015;DHT22;28637;50.554;7.032;2023-08-07T20:50:49;13.90;99.90
43015;DHT22;28637;50.554;7.032;2023-08-07T20:55:50;13.90;99.90
43015;DHT22;28637;50.554;7.032;2023-08-07T21:00:50;13.90;99.90
43015;DHT22;28637;50.554;7.032;2023-08-07T21:05:51;13.90;99.90
43015;DHT22;28637;50.554;7.032;2023-08-07T21:10:52;13.90;99.90
43015;DHT22;28637;50.554;7.032;2023-08-07T21:15:54;14.00;99.90
43015;DHT22;28637;50.554;7.032;2023-08-07T21:20:55;14.00;99.90
43015;DHT22;28637;50.554;7.032;2023-08-07T21:25:56;13.90;99.90
43015;DHT22;28637;50.554;7.032;2023-08-07T21:30:57;14.00;99.90
43015;DHT22;28637;50.554;7.032;2023-08-07T21:35:57;14.10;99.90
43015;DHT22;28637;50.554;7.032;2023-08-07T21:40:58;14.10;99.90
43015;DHT22;28637;50.554;7.032;2023-08-07T21:45:59;14.10;99.90
43015;DHT22;28637;50.554;7.032;2023-08-07T21:51:00;14.00;99.90
43015;DHT22;28637;50.554;7.032;2023-08-07T21:56:01;13.80;99.90
43015;DHT22;28637;50.554;7.032;2023-08-07T22:01:01;13.80;99.90
43015;DHT22;28637;50.554;7.032;2023-08-07T22:06:02;13.80;99.90
43015;DHT22;28637;50.554;7.032;2023-08-07T22:11:03;13.70;99.90
43015;DHT22;28637;50.554;7.032;2023-08-07T22:16:03;13.50;99.90
43015;DHT22;28637;50.554;7.032;2023-08-07T22:21:04;13.30;99.90
43015;DHT22;28637;50.554;7.032;2023-08-07T22:26:05;12.90;99.90
43015;DHT22;28637;50.554;7.032;2023-08-07T22:31:05;12.90;99.90
43015;DHT22;28637;50.554;7.032;2023-08-07T22:36:06;12.90;99.90
43015;DHT22;28637;50.554;7.032;2023-08-07T22:41:11;12.80;99.90
43015;DHT22;28637;50.554;7.032;2023-08-07T22:46:12;12.70;99.90
43015;DHT22;28637;50.554;7.032;2023-08-07T22:51:13;12.50;99.90
43015;DHT22;28637;50.554;7.032;2023-08-07T22:56:13;12.30;99.90
43015;DHT22;28637;50.554;7.032;2023-08-07T23:01:14;12.20;99.90
43015;DHT22;28637;50.554;7.032;2023-08-07T23:06:15;12.10;99.90
43015;DHT22;28637;50.554;7.032;2023-08-07T23:11:15;12.10;99.90
43015;DHT22;28637;50.554;7.032;2023-08-07T23:16:16;12.10;99.90
43015;DHT22;28637;50.554;7.032;2023-08-07T23:21:17;12.00;99.90
43015;DHT22;28637;50.554;7.032;2023-08-07T23:26:18;11.90;99.90
43015;DHT22;28637;50.554;7.032;2023-08-07T23:31:19;12.00;99.90
43015;DHT22;28637;50.554;7.032;2023-08-07T23:36:19;12.10;99.90
43015;DHT22;28637;50.554;7.032;2023-08-07T23:41:20;12.00;99.90
43015;DHT22;28637;50.554;7.032;2023-08-07T23:46:21;12.00;99.90
43015;DHT22;28637;50.554;7.032;2023-08-07T23:51:21;12.00;99.90
43015;DHT22;28637;50.554;7.032;2023-08-07T23:56:22;12.10;99.90
